Terminal Aerodrome Forecast
Issued by NWS

Home | Current Version | Previous Version | Text Only | Print | Product List | Glossary On
Versions: 1 2 3 4 5 6 7 8 9 10 11 12 13 14 15 16 17 18 19 20
000
FTUS45 KBOU 241126
TAFAPA
TAF
KAPA 241126Z 2412/2512 16006KT P6SM FEW030 SCT220
      TEMPO 2413/2415 BKN030
     FM241500 14010KT P6SM FEW030 SCT220
     FM241800 10011KT P6SM SCT060 SCT120
     FM242000 08008KT P6SM VCTS SCT080CB BKN120
     FM242300 01011KT P6SM FEW080 SCT120
     FM250300 19009KT P6SM FEW220=

USA.gov is the U.S. government's official web portal to all federal, state and local government web resources and services.